Time;durP1;ratioP1;P1;durP2;ratioP2;P2;SDS_P1;SDS_P2;PMS_P1;PMS_P2;Temp;Humidity;BMP_temperature;BMP_pressure;BME280_temperature;BME280_humidity;BME280_pressure;Samples;Min_cycle;Max_cycle;Signal;HPM_P1;HPM_P2
2022/12/03 00:00:31;;;;;;;19.83;14.03;;;;;;;7.62;61.19;97495.25;5017102;28;20206;-70
2022/12/03 00:02:56;;;;;;;20.80;13.77;;;;;;;7.56;61.76;97502.75;5027530;28;20184;-69
2022/12/03 00:05:22;;;;;;;21.10;13.87;;;;;;;7.43;62.16;97501.16;5022796;28;20188;-69
2022/12/03 00:07:47;;;;;;;19.70;13.70;;;;;;;7.55;62.35;97501.09;5027633;28;20196;-68
2022/12/03 00:10:13;;;;;;;22.47;14.13;;;;;;;7.52;62.09;97503.00;5027925;28;20666;-68
2022/12/03 00:12:38;;;;;;;22.17;14.00;;;;;;;7.58;62.29;97500.84;5027341;28;20210;-68
2022/12/03 00:15:04;;;;;;;20.90;14.40;;;;;;;7.32;62.23;97503.78;5022178;28;20258;-68
2022/12/03 00:17:30;;;;;;;23.60;14.77;;;;;;;7.41;62.72;97500.47;5029320;28;20262;-69
2022/12/03 00:19:55;;;;;;;23.77;13.90;;;;;;;7.43;62.37;97508.13;5026521;28;20866;-70
2022/12/03 00:22:21;;;;;;;23.37;14.80;;;;;;;7.34;62.83;97499.28;5027127;28;20188;-68
2022/12/03 00:24:46;;;;;;;23.20;13.47;;;;;;;7.41;62.78;97505.66;5025351;28;20264;-69
2022/12/03 00:27:12;;;;;;;23.83;13.53;;;;;;;7.07;63.31;97503.16;5025639;28;20242;-69
2022/12/03 00:29:37;;;;;;;26.00;13.20;;;;;;;7.05;63.57;97508.50;5013618;28;20180;-69
2022/12/03 00:32:02;;;;;;;21.40;14.03;;;;;;;7.18;62.97;97510.13;5023640;28;20207;-68
2022/12/03 00:34:28;;;;;;;26.27;14.00;;;;;;;7.17;63.34;97506.72;5031531;28;20196;-70
2022/12/03 00:36:53;;;;;;;21.60;13.90;;;;;;;7.27;62.49;97508.56;5034435;28;20301;-68
2022/12/03 00:39:19;;;;;;;19.90;13.03;;;;;;;7.00;63.19;97507.22;5026646;28;20279;-68
2022/12/03 00:41:44;;;;;;;19.40;13.90;;;;;;;7.14;63.72;97506.94;5019644;28;20661;-69
2022/12/03 00:44:10;;;;;;;21.67;14.80;;;;;;;6.98;63.78;97509.13;5007843;28;20260;-70
2022/12/03 00:46:36;;;;;;;23.47;14.60;;;;;;;7.07;63.75;97506.59;5023003;28;20207;-69
2022/12/03 00:49:01;;;;;;;24.10;14.13;;;;;;;7.22;63.13;97507.16;5031706;28;20434;-70
2022/12/03 00:51:27;;;;;;;21.03;14.20;;;;;;;7.23;62.78;97508.81;5018247;28;20208;-70
2022/12/03 00:53:52;;;;;;;24.37;14.70;;;;;;;7.29;62.53;97507.47;5021528;28;20322;-69
2022/12/03 00:56:18;;;;;;;23.80;14.20;;;;;;;7.35;62.80;97509.59;5019587;28;20291;-68
2022/12/03 00:58:43;;;;;;;27.27;15.00;;;;;;;7.41;62.27;97515.25;5018677;28;20262;-69
2022/12/03 01:01:09;;;;;;;24.17;15.40;;;;;;;7.42;61.87;97509.94;5019702;28;20188;-69
2022/12/03 01:03:34;;;;;;;24.77;15.00;;;;;;;7.45;61.72;97506.25;5019805;28;20220;-69
2022/12/03 01:06:00;;;;;;;31.07;15.40;;;;;;;7.43;61.61;97510.75;5018230;28;20238;-68
2022/12/03 01:08:25;;;;;;;23.87;15.00;;;;;;;7.46;61.40;97513.94;5023431;28;20179;-69
2022/12/03 01:10:50;;;;;;;23.80;15.97;;;;;;;7.50;61.67;97510.13;5020277;28;20259;-69
2022/12/03 01:13:16;;;;;;;26.17;15.20;;;;;;;7.52;61.80;97517.81;5026029;28;20272;-68
2022/12/03 01:15:41;;;;;;;26.77;15.30;;;;;;;7.47;61.02;97512.16;5015427;28;20214;-68
2022/12/03 01:18:07;;;;;;;26.50;16.03;;;;;;;7.25;61.98;97516.50;5022857;28;20204;-68
2022/12/03 01:20:35;;;;;;;23.70;14.20;;;;;;;7.23;62.02;97508.00;5016254;28;20554;-68
2022/12/03 01:23:00;;;;;;;24.00;14.40;;;;;;;7.23;61.81;97514.03;5019915;28;20246;-68
2022/12/03 01:25:25;;;;;;;20.67;14.50;;;;;;;7.04;62.29;97524.28;5021650;28;20422;-69
2022/12/03 01:27:51;;;;;;;25.83;15.47;;;;;;;6.89;62.39;97521.94;5023452;28;20234;-68
2022/12/03 01:30:16;;;;;;;22.23;14.47;;;;;;;6.98;63.11;97516.94;5021156;28;20219;-68
2022/12/03 01:32:42;;;;;;;26.43;15.27;;;;;;;7.16;62.15;97518.09;5009030;28;20199;-70
2022/12/03 01:35:07;;;;;;;27.97;15.50;;;;;;;7.17;62.47;97519.75;5019088;28;20350;-67
2022/12/03 01:37:33;;;;;;;23.27;15.17;;;;;;;7.09;62.75;97514.28;5031239;28;20207;-68
2022/12/03 01:39:58;;;;;;;23.53;15.20;;;;;;;7.18;62.46;97518.75;5018775;28;20211;-68
2022/12/03 01:42:34;;;;;;;24.80;15.80;;;;;;;7.11;62.48;97515.00;5021776;28;20597;-68
2022/12/03 01:45:02;;;;;;;26.47;16.00;;;;;;;7.12;62.58;97513.25;5022723;28;20172;-68
2022/12/03 01:47:30;;;;;;;24.53;14.90;;;;;;;7.10;62.83;97513.34;5019907;28;20805;-68
2022/12/03 01:50:14;;;;;;;21.80;14.40;;;;;;;7.11;62.70;97515.00;5023036;28;20422;-69
2022/12/03 01:52:40;;;;;;;25.67;15.67;;;;;;;7.07;62.76;97513.59;5006812;28;20444;-69
2022/12/03 01:55:11;;;;;;;29.13;16.13;;;;;;;7.08;62.95;97515.25;5019835;28;20482;-68
2022/12/03 01:57:42;;;;;;;26.57;16.13;;;;;;;7.12;62.75;97519.28;5019325;28;20445;-68
2022/12/03 02:00:16;;;;;;;23.90;15.03;;;;;;;7.11;62.39;97520.22;5008137;28;20946;-69
2022/12/03 02:02:42;;;;;;;22.70;14.83;;;;;;;7.06;63.01;97517.13;5019687;28;20465;-70
2022/12/03 02:05:16;;;;;;;23.63;15.50;;;;;;;7.10;62.89;97526.38;5027410;28;20450;-70
2022/12/03 02:07:42;;;;;;;25.10;15.50;;;;;;;7.20;62.26;97529.91;5027437;28;20203;-70
2022/12/03 02:10:09;;;;;;;22.27;14.50;;;;;;;7.25;62.53;97521.72;5016993;28;20438;-70
2022/12/03 02:12:43;;;;;;;27.37;15.80;;;;;;;7.14;62.91;97526.97;5026218;28;20176;-71
2022/12/03 02:15:09;;;;;;;26.03;16.43;;;;;;;6.98;62.56;97519.53;5025578;28;20519;-69
2022/12/03 02:17:34;;;;;;;24.10;14.93;;;;;;;6.95;62.87;97519.78;5026062;28;20487;-71
2022/12/03 02:20:02;;;;;;;28.30;16.73;;;;;;;6.90;62.98;97514.94;5041128;28;20430;-69
2022/12/03 02:23:00;;;;;;;25.30;15.63;;;;;;;6.97;62.59;97515.28;5032629;28;20322;-70
2022/12/03 02:25:33;;;;;;;25.90;15.47;;;;;;;7.13;62.58;97518.31;5024046;28;20430;-69
2022/12/03 02:27:59;;;;;;;26.33;15.50;;;;;;;7.17;62.40;97513.69;5027717;28;20553;-71
2022/12/03 02:30:26;;;;;;;23.47;15.33;;;;;;;7.23;62.36;97514.03;5016253;28;20472;-69
2022/12/03 02:32:53;;;;;;;24.70;15.10;;;;;;;7.26;61.91;97509.50;5031206;28;20805;-71
2022/12/03 02:35:20;;;;;;;27.07;17.00;;;;;;;7.17;62.32;97509.31;5022098;28;20852;-70
2022/12/03 02:37:48;;;;;;;25.70;15.20;;;;;;;7.21;62.48;97515.91;5027736;28;20974;-70
2022/12/03 02:40:22;;;;;;;24.00;14.97;;;;;;;7.21;61.80;97509.88;5022724;28;20449;-70
2022/12/03 02:42:50;;;;;;;25.10;15.63;;;;;;;7.26;62.06;97520.75;5021134;28;20502;-71
2022/12/03 02:45:20;;;;;;;30.10;16.87;;;;;;;7.30;62.27;97513.53;5023192;28;20419;-71
2022/12/03 02:47:56;;;;;;;25.30;15.07;;;;;;;7.38;62.39;97517.16;5032200;28;20941;-70
2022/12/03 02:50:26;;;;;;;24.43;15.17;;;;;;;7.37;61.92;97514.69;5023968;28;20456;-71
2022/12/03 02:52:53;;;;;;;23.80;15.53;;;;;;;7.20;62.48;97511.66;5031054;28;20471;-70
2022/12/03 02:55:19;;;;;;;26.60;16.40;;;;;;;7.30;62.54;97518.75;5028511;28;20807;-70
2022/12/03 02:57:45;;;;;;;25.70;15.60;;;;;;;7.34;62.46;97513.16;5027805;28;20445;-71
2022/12/03 03:00:11;;;;;;;24.00;15.10;;;;;;;7.28;62.45;97515.44;5024296;28;20267;-69
2022/12/03 03:02:38;;;;;;;22.50;14.87;;;;;;;7.35;62.46;97521.81;5042591;28;20769;-69
2022/12/03 03:05:05;;;;;;;27.30;14.93;;;;;;;7.38;62.28;97513.72;5025764;28;21153;-70
2022/12/03 03:07:31;;;;;;;26.67;15.37;;;;;;;7.34;62.36;97520.13;5035768;28;20447;-69
2022/12/03 03:09:57;;;;;;;25.67;15.23;;;;;;;7.39;62.51;97523.22;5020572;28;20420;-70
2022/12/03 03:12:23;;;;;;;24.67;14.70;;;;;;;7.41;62.13;97521.31;5025855;28;20972;-70
2022/12/03 03:14:48;;;;;;;24.97;15.63;;;;;;;7.29;62.31;97524.91;5025422;28;20459;-70
2022/12/03 03:17:14;;;;;;;29.67;16.33;;;;;;;7.33;62.21;97513.28;5022953;28;20704;-69
2022/12/03 03:19:39;;;;;;;23.30;15.47;;;;;;;7.46;61.96;97519.16;5025072;28;20181;-70
2022/12/03 03:22:04;;;;;;;23.53;15.30;;;;;;;7.43;61.93;97518.56;5021980;28;20575;-69
2022/12/03 03:24:31;;;;;;;29.30;15.87;;;;;;;7.48;61.92;97516.44;5031609;28;20241;-70
2022/12/03 03:26:56;;;;;;;24.60;14.97;;;;;;;7.36;61.83;97518.25;5012182;28;20626;-70
2022/12/03 03:29:22;;;;;;;23.70;15.10;;;;;;;7.40;62.16;97519.66;5005999;28;20435;-69
2022/12/03 03:31:47;;;;;;;25.57;16.03;;;;;;;7.39;61.78;97512.78;5024211;28;20196;-69
2022/12/03 03:34:14;;;;;;;24.30;15.37;;;;;;;7.34;62.66;97510.56;5020118;28;20238;-69
2022/12/03 03:36:39;;;;;;;24.37;14.43;;;;;;;7.42;62.65;97506.47;5025796;28;20212;-69
2022/12/03 03:39:05;;;;;;;23.97;15.63;;;;;;;7.36;62.30;97513.03;5020497;28;20486;-68
2022/12/03 03:41:31;;;;;;;21.67;14.60;;;;;;;7.31;62.69;97504.78;5032778;28;20187;-69
2022/12/03 03:43:56;;;;;;;23.07;14.50;;;;;;;7.31;62.44;97508.19;5027661;28;20271;-69
2022/12/03 03:46:22;;;;;;;27.83;15.20;;;;;;;7.38;62.36;97511.13;5023068;28;20192;-68
2022/12/03 03:48:48;;;;;;;24.70;15.33;;;;;;;7.44;62.31;97509.81;5028837;28;20191;-68
2022/12/03 03:51:15;;;;;;;24.50;14.60;;;;;;;7.38;62.52;97506.72;5023134;28;20662;-69
2022/12/03 03:53:43;;;;;;;21.93;14.47;;;;;;;7.43;62.25;97501.16;5028550;28;20991;-69
2022/12/03 03:56:09;;;;;;;21.73;14.53;;;;;;;7.52;62.83;97499.56;5017933;28;20455;-69
2022/12/03 03:58:35;;;;;;;23.07;14.90;;;;;;;7.51;62.63;97496.13;5019202;28;20980;-69
2022/12/03 04:01:01;;;;;;;25.60;15.07;;;;;;;7.58;62.12;97506.06;5024895;28;20427;-69
2022/12/03 04:03:27;;;;;;;19.17;13.60;;;;;;;7.56;62.70;97500.16;5038186;28;20441;-69
2022/12/03 04:05:53;;;;;;;30.80;15.07;;;;;;;7.47;62.47;97502.53;5024920;28;20184;-69
2022/12/03 04:08:18;;;;;;;23.50;14.10;;;;;;;7.49;62.51;97498.03;5021723;28;20444;-69
2022/12/03 04:13:28;;;;;;;24.57;14.37;;;;;;;7.52;62.35;97491.72;5023403;28;20187;-69
2022/12/03 04:15:53;;;;;;;21.50;14.00;;;;;;;7.31;62.74;97499.56;5019967;28;20458;-69
2022/12/03 04:23:47;;;;;;;22.00;14.13;;;;;;;7.29;63.32;97499.66;5016320;28;20425;-69
2022/12/03 04:28:56;;;;;;;24.17;15.53;;;;;;;7.26;63.54;97496.47;5015957;28;20263;-70
2022/12/03 04:36:52;;;;;;;25.03;15.83;;;;;;;7.38;62.98;97488.47;5018272;28;20454;-70
2022/12/03 04:39:17;;;;;;;24.97;15.43;;;;;;;7.47;62.54;97493.91;5019553;28;20438;-69
2022/12/03 04:41:43;;;;;;;23.17;15.40;;;;;;;7.52;62.02;97487.38;5014080;28;20906;-68
2022/12/03 04:46:52;;;;;;;27.73;16.57;;;;;;;7.46;62.43;97487.03;5023074;28;20212;-69
2022/12/03 04:49:17;;;;;;;26.33;16.37;;;;;;;7.45;61.73;97483.59;5022329;28;21064;-69
2022/12/03 04:51:43;;;;;;;24.20;16.27;;;;;;;7.46;62.51;97482.63;5018910;28;20282;-69
2022/12/03 04:54:08;;;;;;;24.93;15.53;;;;;;;7.45;62.02;97495.81;5027937;28;20183;-70
2022/12/03 04:56:34;;;;;;;24.53;15.03;;;;;;;7.49;62.26;97486.78;5020151;28;20200;-69
2022/12/03 04:58:59;;;;;;;23.33;15.20;;;;;;;7.48;62.42;97485.13;5026928;28;20212;-68
2022/12/03 05:01:25;;;;;;;24.80;16.13;;;;;;;7.45;62.40;97475.75;5028727;28;20186;-70
2022/12/03 05:03:50;;;;;;;27.67;15.97;;;;;;;7.42;62.90;97473.44;5031019;28;20782;-70
2022/12/03 05:06:16;;;;;;;23.90;14.67;;;;;;;7.48;63.03;97475.50;5029615;28;20207;-70
2022/12/03 05:08:41;;;;;;;24.70;15.47;;;;;;;7.47;62.75;97476.47;5034858;28;20179;-70
2022/12/03 05:11:07;;;;;;;23.83;15.70;;;;;;;7.46;62.39;97477.41;5028142;28;20270;-70
2022/12/03 05:13:32;;;;;;;26.40;15.50;;;;;;;7.37;62.74;97488.59;5029893;28;20710;-71
2022/12/03 05:15:57;;;;;;;25.40;15.93;;;;;;;7.37;63.05;97478.19;5028753;28;20763;-69
2022/12/03 05:18:23;;;;;;;25.37;15.10;;;;;;;7.44;63.03;97476.72;5027706;28;21770;-70
2022/12/03 05:20:48;;;;;;;22.33;14.53;;;;;;;7.47;62.88;97476.47;5025706;28;20180;-71
2022/12/03 05:23:14;;;;;;;23.17;15.20;;;;;;;7.51;62.75;97475.28;5029210;28;20270;-70
2022/12/03 05:25:40;;;;;;;23.80;14.33;;;;;;;7.56;62.34;97476.69;5029749;28;20183;-69
2022/12/03 05:28:06;;;;;;;26.57;15.57;;;;;;;7.58;62.60;97467.78;5029176;28;20588;-70
2022/12/03 05:30:31;;;;;;;28.00;15.50;;;;;;;7.55;62.89;97473.22;5028964;28;20933;-70
2022/12/03 05:32:57;;;;;;;23.40;14.93;;;;;;;7.60;63.22;97462.41;5029971;28;20446;-69
2022/12/03 05:35:22;;;;;;;24.43;15.50;;;;;;;7.58;62.49;97453.88;5026756;28;20299;-69
2022/12/03 05:37:48;;;;;;;24.37;14.67;;;;;;;7.53;62.89;97451.66;5035032;28;20204;-70
2022/12/03 05:40:14;;;;;;;23.27;13.90;;;;;;;7.28;63.26;97464.09;5032400;28;20658;-71
2022/12/03 05:42:55;;;;;;;21.63;13.63;;;;;;;7.34;63.70;97463.63;5036432;28;20249;-69
2022/12/03 05:45:25;;;;;;;21.77;15.17;;;;;;;7.34;63.68;97468.84;5033641;28;20595;-70
2022/12/03 05:47:52;;;;;;;22.50;14.33;;;;;;;7.40;63.31;97461.44;5033505;28;20453;-70
2022/12/03 05:50:19;;;;;;;22.37;14.03;;;;;;;7.44;63.82;97455.84;5032674;28;20438;-70
2022/12/03 05:52:44;;;;;;;24.50;14.30;;;;;;;7.42;63.55;97465.59;5034072;28;20418;-70
2022/12/03 05:55:10;;;;;;;22.80;14.73;;;;;;;7.50;63.28;97470.16;5039665;28;20454;-69
2022/12/03 05:57:36;;;;;;;21.30;14.30;;;;;;;7.54;63.06;97468.97;5031081;28;20207;-70
2022/12/03 06:00:04;;;;;;;22.60;14.80;;;;;;;7.57;62.21;97471.31;5034016;28;20210;-70
2022/12/03 06:02:29;;;;;;;23.60;14.60;;;;;;;7.50;63.11;97463.19;5027635;28;20421;-69
2022/12/03 06:04:55;;;;;;;25.60;16.03;;;;;;;7.49;62.53;97465.94;5033803;28;20429;-69
2022/12/03 06:07:20;;;;;;;29.33;15.73;;;;;;;7.37;62.83;97467.75;5037670;28;20281;-69
2022/12/03 06:09:46;;;;;;;24.93;15.17;;;;;;;7.36;63.39;97460.88;5033800;28;20238;-70
2022/12/03 06:12:11;;;;;;;23.77;16.03;;;;;;;7.33;63.30;97467.19;5032308;28;20267;-69
2022/12/03 06:14:37;;;;;;;23.87;15.37;;;;;;;7.30;63.48;97471.81;5029758;28;20291;-69
2022/12/03 06:17:03;;;;;;;26.80;16.17;;;;;;;7.25;63.07;97463.53;5031781;28;20208;-70
2022/12/03 06:19:28;;;;;;;23.67;14.27;;;;;;;7.32;63.99;97460.31;5031678;28;20209;-69
2022/12/03 06:21:54;;;;;;;26.10;16.00;;;;;;;7.37;62.88;97463.34;5033007;28;20438;-70
2022/12/03 06:24:19;;;;;;;25.50;15.60;;;;;;;7.30;63.53;97474.44;5032977;28;20564;-70
2022/12/03 06:26:45;;;;;;;25.53;15.70;;;;;;;7.24;63.68;97473.16;5033952;28;20197;-70
2022/12/03 06:29:10;;;;;;;28.20;16.90;;;;;;;7.28;63.74;97477.13;5032633;28;20187;-70
2022/12/03 06:31:36;;;;;;;28.10;16.90;;;;;;;7.39;63.72;97481.50;5026425;28;20184;-69
2022/12/03 06:34:01;;;;;;;25.47;17.23;;;;;;;7.34;63.33;97473.22;5033115;28;20632;-70
2022/12/03 06:36:27;;;;;;;22.67;14.97;;;;;;;7.28;63.76;97476.31;5033010;28;20211;-69
2022/12/03 06:38:53;;;;;;;24.63;15.13;;;;;;;7.30;63.88;97483.06;5035972;28;20249;-68
2022/12/03 06:41:18;;;;;;;23.47;15.67;;;;;;;7.41;63.58;97479.59;5034038;28;20198;-68
2022/12/03 06:43:44;;;;;;;25.43;16.00;;;;;;;7.40;63.13;97480.53;5026969;28;20426;-68
2022/12/03 06:46:09;;;;;;;23.33;14.77;;;;;;;7.35;63.40;97493.13;5032418;28;20555;-68
2022/12/03 06:48:35;;;;;;;24.37;15.27;;;;;;;7.36;63.76;97505.22;5031606;28;20183;-70
2022/12/03 06:51:00;;;;;;;24.60;15.93;;;;;;;7.35;63.70;97490.50;5032489;28;20188;-69
2022/12/03 06:53:26;;;;;;;28.93;15.07;;;;;;;7.45;63.77;97499.22;5033457;28;20254;-69
2022/12/03 06:55:51;;;;;;;23.13;15.03;;;;;;;7.48;63.10;97492.97;5033117;28;20223;-69
2022/12/03 06:58:17;;;;;;;23.10;14.50;;;;;;;7.35;63.63;97490.50;5031808;28;20262;-68
2022/12/03 07:00:42;;;;;;;24.10;15.40;;;;;;;7.36;63.55;97486.94;5032982;28;20503;-68
2022/12/03 07:03:07;;;;;;;26.17;16.10;;;;;;;7.33;63.65;97487.19;5032875;28;20183;-68
2022/12/03 07:05:33;;;;;;;23.70;14.50;;;;;;;7.34;63.67;97484.47;5033091;28;20270;-69
2022/12/03 07:07:59;;;;;;;25.60;15.00;;;;;;;7.39;63.96;97476.28;5032044;28;20207;-69
2022/12/03 07:10:24;;;;;;;25.90;16.20;;;;;;;7.51;63.77;97472.66;5031435;28;20194;-69
2022/12/03 07:12:50;;;;;;;25.70;16.80;;;;;;;7.48;63.74;97469.47;5031562;28;20188;-68
2022/12/03 07:15:15;;;;;;;27.73;16.33;;;;;;;7.51;63.81;97472.66;5032467;28;20234;-69
2022/12/03 07:17:40;;;;;;;25.87;15.83;;;;;;;7.55;63.42;97485.47;5041837;28;20206;-69
2022/12/03 07:20:07;;;;;;;27.13;16.63;;;;;;;7.47;63.82;97478.25;5034843;28;20262;-70
2022/12/03 07:22:32;;;;;;;29.43;17.70;;;;;;;7.46;64.05;97482.63;4999418;28;20600;-70
2022/12/03 07:24:58;;;;;;;25.90;15.70;;;;;;;7.48;64.15;97485.94;5025205;28;20424;-70
2022/12/03 07:27:23;;;;;;;23.77;15.70;;;;;;;7.50;63.35;97481.44;5032596;28;20334;-70
2022/12/03 07:29:49;;;;;;;27.40;16.47;;;;;;;7.46;64.04;97482.63;5031482;28;20186;-70
2022/12/03 07:32:14;;;;;;;29.10;18.73;;;;;;;7.49;63.79;97477.19;5032655;28;20236;-70
2022/12/03 07:34:39;;;;;;;26.93;17.60;;;;;;;7.57;64.14;97483.53;5032950;28;20235;-70
2022/12/03 07:37:05;;;;;;;26.73;15.50;;;;;;;7.57;63.91;97486.13;5027817;28;20215;-70
2022/12/03 07:39:30;;;;;;;26.30;16.00;;;;;;;7.57;63.98;97483.53;5033464;28;20689;-70
2022/12/03 07:41:56;;;;;;;24.57;16.43;;;;;;;7.52;63.66;97482.16;5037521;28;20184;-70
2022/12/03 07:44:21;;;;;;;34.23;16.23;;;;;;;7.52;63.28;97481.28;5035348;28;20190;-70
2022/12/03 07:46:47;;;;;;;24.47;15.60;;;;;;;7.50;63.67;97481.44;5032927;28;20211;-69
2022/12/03 07:49:12;;;;;;;29.10;17.53;;;;;;;7.52;63.36;97482.16;5034205;28;20187;-70
2022/12/03 07:51:38;;;;;;;26.87;15.33;;;;;;;7.52;63.43;97476.94;5044475;28;20180;-68
2022/12/03 07:54:04;;;;;;;29.53;17.57;;;;;;;7.48;63.66;97469.47;5028072;28;20180;-70
2022/12/03 07:56:29;;;;;;;28.70;16.80;;;;;;;7.47;63.36;97473.84;5022319;28;20582;-69
2022/12/03 07:58:55;;;;;;;37.50;24.60;;;;;;;7.33;63.56;97466.34;5028149;28;20191;-70
2022/12/03 08:01:20;;;;;;;37.03;22.07;;;;;;;7.33;63.79;97471.56;5032857;28;20187;-70
2022/12/03 08:03:46;;;;;;;38.63;24.03;;;;;;;7.19;64.16;97476.09;5027851;28;20191;-70
2022/12/03 08:06:11;;;;;;;38.40;24.60;;;;;;;7.33;64.32;97472.41;5030281;28;20206;-70
2022/12/03 08:08:37;;;;;;;29.80;18.73;;;;;;;7.35;63.74;97473.09;5023602;28;20179;-71
2022/12/03 08:11:02;;;;;;;31.77;19.03;;;;;;;7.45;63.35;97478.38;5027349;28;20219;-69
2022/12/03 08:13:28;;;;;;;52.37;29.30;;;;;;;7.37;62.81;97484.22;5008656;28;20186;-69
2022/12/03 08:16:00;;;;;;;34.47;20.20;;;;;;;7.40;63.28;97483.16;5022812;28;20287;-69
2022/12/03 08:18:27;;;;;;;34.27;21.20;;;;;;;7.35;63.80;97482.69;5019045;28;20578;-69
2022/12/03 08:20:52;;;;;;;27.87;17.30;;;;;;;7.41;63.14;97487.41;5019431;28;20431;-70
2022/12/03 08:23:20;;;;;;;31.80;19.60;;;;;;;7.44;63.38;97479.31;5025191;28;21164;-71
2022/12/03 08:25:46;;;;;;;35.60;21.80;;;;;;;7.54;63.51;97476.78;5023963;28;20213;-70
2022/12/03 08:28:20;;;;;;;31.50;19.30;;;;;;;7.35;61.33;97477.47;5009543;28;20478;-69
2022/12/03 08:31:12;;;;;;;35.33;19.17;;;;;;;7.43;62.64;97477.69;5028565;28;20784;-72
2022/12/03 08:33:38;;;;;;;35.70;19.27;;;;;;;7.46;61.69;97476.59;5021052;28;20974;-70
2022/12/03 08:36:31;;;;;;;35.70;20.93;;;;;;;7.44;62.17;97479.31;5028762;28;20473;-70
2022/12/03 08:39:30;;;;;;;39.07;23.10;;;;;;;7.49;61.46;97474.56;5018356;28;20446;-71
2022/12/03 08:43:00;;;;;;;33.37;18.70;;;;;;;7.44;61.33;97465.47;5019655;28;20427;-71
2022/12/03 08:45:29;;;;;;;36.97;19.00;;;;;;;7.45;61.69;97465.31;5012593;28;21003;-71
2022/12/03 08:47:59;;;;;;;33.50;18.80;;;;;;;7.32;60.92;97469.88;5025619;28;20442;-71
2022/12/03 08:50:27;;;;;;;34.80;21.00;;;;;;;7.36;61.36;97469.53;5024517;28;20435;-70
2022/12/03 08:52:57;;;;;;;29.50;19.20;;;;;;;7.34;61.44;97473.22;5007673;28;20435;-70
2022/12/03 08:55:36;;;;;;;32.80;19.20;;;;;;;7.32;61.94;97475.09;5028549;28;21042;-71
2022/12/03 08:58:22;;;;;;;34.83;17.93;;;;;;;7.30;61.27;97466.59;5023297;28;20450;-70
2022/12/03 09:00:53;;;;;;;32.80;18.90;;;;;;;7.18;60.69;97468.41;5029299;28;20431;-71
2022/12/03 09:03:18;;;;;;;32.87;18.13;;;;;;;7.23;60.55;97472.31;5030841;28;20441;-71
2022/12/03 09:05:44;;;;;;;32.10;18.27;;;;;;;7.24;60.99;97475.75;5034114;28;20421;-71
2022/12/03 09:08:10;;;;;;;31.63;17.50;;;;;;;7.23;60.40;97474.91;5037243;28;20215;-70
2022/12/03 09:10:35;;;;;;;34.23;19.87;;;;;;;7.19;61.59;97483.91;5045823;28;20262;-70
2022/12/03 09:13:01;;;;;;;31.83;19.33;;;;;;;7.10;61.45;97482.06;5030529;28;20199;-72
2022/12/03 09:15:27;;;;;;;33.53;19.17;;;;;;;7.07;61.44;97490.97;5027256;28;20195;-71
2022/12/03 09:17:53;;;;;;;33.27;19.13;;;;;;;6.96;61.45;97485.78;5031499;28;20200;-72
2022/12/03 09:20:18;;;;;;;29.40;17.63;;;;;;;7.07;61.07;97487.53;5020928;28;20439;-71
2022/12/03 09:22:43;;;;;;;32.87;17.67;;;;;;;7.09;60.70;97485.63;5038350;28;20562;-72
2022/12/03 09:25:09;;;;;;;37.90;19.90;;;;;;;7.00;60.97;97497.59;5028750;28;20184;-73
2022/12/03 09:27:35;;;;;;;35.50;18.77;;;;;;;7.10;61.08;97489.88;5028017;28;20199;-73
2022/12/03 09:30:00;;;;;;;41.40;21.10;;;;;;;6.82;61.05;97488.66;5011317;28;20183;-72
2022/12/03 09:32:26;;;;;;;41.97;21.00;;;;;;;6.85;61.15;97489.25;5014157;28;20202;-73
2022/12/03 09:35:07;;;;;;;42.00;22.40;;;;;;;6.79;60.92;97483.69;4999458;28;20228;-71
2022/12/03 09:37:32;;;;;;;38.20;20.37;;;;;;;6.80;61.02;97475.78;5005868;28;20504;-71
2022/12/03 09:39:57;;;;;;;39.13;20.50;;;;;;;6.81;61.49;97476.59;5032103;28;20222;-70
2022/12/03 09:42:24;;;;;;;40.30;22.43;;;;;;;6.82;60.95;97473.84;5022649;28;20195;-71
2022/12/03 09:44:49;;;;;;;35.63;19.70;;;;;;;6.82;60.56;97460.00;5023976;28;20184;-72
2022/12/03 09:47:15;;;;;;;37.00;20.03;;;;;;;6.71;60.74;97458.25;5023251;28;20872;-72
2022/12/03 09:49:40;;;;;;;36.07;19.20;;;;;;;6.76;60.86;97458.72;5021378;28;20180;-72
2022/12/03 09:52:06;;;;;;;33.57;18.87;;;;;;;6.76;60.54;97458.72;5021890;28;20559;-71
2022/12/03 09:54:32;;;;;;;35.67;19.70;;;;;;;6.81;60.92;97461.75;5036840;28;20187;-73
2022/12/03 09:56:59;;;;;;;36.63;19.10;;;;;;;6.84;60.64;97466.75;5031266;28;20215;-71
2022/12/03 09:59:30;;;;;;;43.47;21.47;;;;;;;6.81;60.77;97461.75;5012312;28;20454;-71
2022/12/03 10:01:56;;;;;;;35.80;19.47;;;;;;;6.86;60.37;97462.25;5029018;28;20441;-71
2022/12/03 10:04:21;;;;;;;32.17;18.47;;;;;;;6.91;60.49;97472.28;5030089;28;20420;-70
2022/12/03 10:06:47;;;;;;;34.30;19.47;;;;;;;6.87;59.52;97465.66;5033210;28;20977;-71
2022/12/03 10:09:16;;;;;;;31.87;18.63;;;;;;;6.80;59.92;97470.56;5030563;28;20184;-71
2022/12/03 10:11:41;;;;;;;35.57;19.23;;;;;;;6.77;60.17;97478.63;5030329;28;20246;-71
2022/12/03 10:14:11;;;;;;;33.83;18.10;;;;;;;6.80;60.02;97475.78;5031339;28;20430;-72
2022/12/03 10:16:38;;;;;;;34.53;18.83;;;;;;;6.75;59.16;97473.50;5012177;28;20675;-71
2022/12/03 10:19:04;;;;;;;30.07;16.90;;;;;;;6.83;59.14;97464.28;5029716;28;20902;-70
2022/12/03 10:21:36;;;;;;;30.20;16.90;;;;;;;6.75;58.69;97462.28;5040624;28;20441;-71
2022/12/03 10:24:20;;;;;;;33.63;18.50;;;;;;;6.61;59.31;97460.78;5032718;28;20221;-71
2022/12/03 10:26:47;;;;;;;31.47;18.20;;;;;;;6.52;58.53;97464.91;5029856;28;20845;-71
2022/12/03 10:29:13;;;;;;;30.13;18.30;;;;;;;6.58;59.17;97461.00;5033648;28;20434;-71
2022/12/03 10:31:38;;;;;;;30.37;17.47;;;;;;;6.53;58.97;97463.97;5028926;28;20468;-71
2022/12/03 10:34:04;;;;;;;34.13;18.20;;;;;;;6.45;59.22;97455.91;5033361;28;20446;-71
2022/12/03 10:36:29;;;;;;;31.83;19.07;;;;;;;6.55;59.44;97456.03;5036831;28;20218;-72
2022/12/03 10:39:11;;;;;;;33.67;20.87;;;;;;;6.66;59.03;97453.41;5040971;28;20532;-71
2022/12/03 10:41:37;;;;;;;30.07;18.03;;;;;;;6.70;59.10;97448.78;5035060;28;20190;-72
2022/12/03 10:44:16;;;;;;;30.77;18.30;;;;;;;6.59;59.04;97452.25;5024109;28;20767;-70
2022/12/03 10:46:43;;;;;;;30.77;17.50;;;;;;;6.63;59.10;97450.22;5029120;28;20500;-70
2022/12/03 10:49:13;;;;;;;31.23;17.57;;;;;;;6.66;58.80;97447.38;5032748;28;20434;-71
2022/12/03 10:51:39;;;;;;;30.33;18.00;;;;;;;6.69;59.15;97441.91;5032370;28;20537;-70
2022/12/03 10:54:13;;;;;;;30.50;17.87;;;;;;;6.59;58.93;97437.44;5046580;28;20440;-70
2022/12/03 10:56:39;;;;;;;28.33;17.17;;;;;;;6.55;59.18;97428.19;5028310;28;20206;-72
2022/12/03 10:59:05;;;;;;;30.60;17.63;;;;;;;6.58;59.08;97424.53;5032092;28;20945;-72
2022/12/03 11:01:30;;;;;;;32.20;19.10;;;;;;;6.68;59.77;97422.84;5032522;28;20434;-71
2022/12/03 11:04:02;;;;;;;32.70;17.33;;;;;;;6.69;59.54;97416.69;5016138;28;20179;-70
2022/12/03 11:06:30;;;;;;;32.37;18.27;;;;;;;6.79;59.78;97422.00;5024737;28;20537;-70
2022/12/03 11:08:56;;;;;;;28.47;16.90;;;;;;;6.77;58.88;97416.09;5039576;28;20520;-72
2022/12/03 11:11:28;;;;;;;32.00;18.10;;;;;;;6.66;58.85;97416.13;5031317;28;20427;-72
2022/12/03 11:14:03;;;;;;;32.53;17.03;;;;;;;6.73;59.27;97414.66;5033626;28;20842;-72
2022/12/03 11:16:38;;;;;;;28.63;17.03;;;;;;;6.77;59.27;97405.66;5029488;28;20469;-71
2022/12/03 11:19:14;;;;;;;28.17;16.00;;;;;;;6.79;59.32;97406.38;5032769;28;20417;-71
2022/12/03 11:22:02;;;;;;;31.17;18.27;;;;;;;6.82;58.34;97398.28;5026418;28;20441;-71
2022/12/03 11:24:27;;;;;;;32.30;17.50;;;;;;;6.83;58.87;97407.75;5031265;28;20925;-71
2022/12/03 11:26:52;;;;;;;29.90;17.30;;;;;;;6.88;59.03;97400.41;5019321;28;20516;-71
2022/12/03 11:29:54;;;;;;;28.50;16.40;;;;;;;6.71;58.39;97406.16;5031129;28;20184;-72
2022/12/03 11:32:58;;;;;;;29.97;15.57;;;;;;;6.59;59.03;97403.56;5031338;28;20205;-72
2022/12/03 11:35:23;;;;;;;32.10;15.80;;;;;;;6.59;58.68;97403.56;5031417;28;21867;-70
2022/12/03 11:37:49;;;;;;;26.37;15.07;;;;;;;6.55;58.53;97403.94;5031209;28;20822;-73
2022/12/03 11:40:17;;;;;;;31.33;15.30;;;;;;;6.59;58.23;97398.38;5030993;28;20234;-71
2022/12/03 11:42:45;;;;;;;27.70;15.43;;;;;;;6.51;58.25;97392.94;5037793;28;20215;-71
2022/12/03 11:45:29;;;;;;;28.30;14.63;;;;;;;6.56;58.32;97396.00;5012001;28;20419;-72